createdAt,value
2019-05-28T05:40:26.067Z,997.90
2019-05-28T05:41:25.970Z,997.90
2019-05-28T05:42:25.947Z,997.89
2019-05-28T05:43:25.931Z,997.93
2019-05-28T05:44:25.921Z,997.94
2019-05-28T05:45:25.886Z,997.94
2019-05-28T05:46:25.863Z,997.89
2019-05-28T05:47:25.843Z,997.91
2019-05-28T05:48:25.823Z,997.90
2019-05-28T05:49:25.817Z,997.89
2019-05-28T05:50:25.787Z,997.91
2019-05-28T05:51:25.766Z,997.88
2019-05-28T05:52:25.749Z,997.92
2019-05-28T05:53:25.726Z,997.90
2019-05-28T05:54:25.725Z,997.95
2019-05-28T05:55:25.686Z,997.94
2019-05-28T05:56:25.668Z,997.96
2019-05-28T05:57:25.649Z,997.98
2019-05-28T05:58:25.631Z,997.97
2019-05-28T05:59:25.611Z,997.93
2019-05-28T06:00:25.627Z,997.90
2019-05-28T06:01:25.576Z,997.91
2019-05-28T06:02:25.557Z,997.91
2019-05-28T06:03:39.727Z,997.91
2019-05-28T06:04:25.520Z,997.91
2019-05-28T06:05:25.516Z,997.95
2019-05-28T06:06:25.484Z,997.93
2019-05-28T06:07:25.464Z,997.91
2019-05-28T06:08:25.451Z,997.92
2019-05-28T06:09:25.435Z,997.92
2019-05-28T06:10:25.428Z,997.91
2019-05-28T06:11:25.404Z,997.90
2019-05-28T06:12:25.376Z,997.92
2019-05-28T06:13:25.358Z,997.95
2019-05-28T06:14:25.351Z,997.98
2019-05-28T06:15:25.338Z,997.98
2019-05-28T06:16:25.317Z,997.97
2019-05-28T06:17:25.288Z,997.99
2019-05-28T06:18:25.274Z,997.98
2019-05-28T06:19:25.254Z,997.93
2019-05-28T06:20:25.235Z,997.97
2019-05-28T06:21:25.234Z,997.96
2019-05-28T06:22:25.203Z,997.97
2019-05-28T06:23:25.185Z,997.92
2019-05-28T06:24:25.169Z,997.97
2019-05-28T06:25:25.266Z,997.98
2019-05-28T06:26:25.150Z,997.97
2019-05-28T06:27:25.116Z,997.97
2019-05-28T06:28:25.100Z,997.98
2019-05-28T06:29:25.086Z,997.97
2019-05-28T06:30:25.068Z,998.01
2019-05-28T06:31:25.064Z,998.00
2019-05-28T06:32:25.036Z,998.01
2019-05-28T06:33:25.019Z,998.01
2019-05-28T06:34:25.006Z,998.02
2019-05-28T06:35:24.985Z,998.05
2019-05-28T06:36:24.982Z,998.04
2019-05-28T06:37:24.951Z,998.02
2019-05-28T06:38:24.935Z,998.03
2019-05-28T06:39:24.933Z,998.07
2019-05-28T06:40:24.903Z,998.05
2019-05-28T06:41:24.899Z,998.08
2019-05-28T06:42:24.873Z,998.11
2019-05-28T06:43:24.851Z,998.09
2019-05-28T06:44:24.839Z,998.13
2019-05-28T06:45:24.820Z,998.14
2019-05-28T06:46:24.816Z,998.15
2019-05-28T06:47:24.784Z,998.17
2019-05-28T06:48:24.830Z,998.17
2019-05-28T06:49:24.756Z,998.17
2019-05-28T06:50:24.747Z,998.17
2019-05-28T06:51:24.732Z,998.15
2019-05-28T06:52:24.706Z,998.10
2019-05-28T06:53:24.692Z,998.20
2019-05-28T06:54:24.674Z,998.17
2019-05-28T06:55:24.654Z,998.18
2019-05-28T06:56:24.652Z,998.19
2019-05-28T06:57:24.623Z,998.18
2019-05-28T06:58:38.808Z,998.19
2019-05-28T06:59:24.589Z,998.16
2019-05-28T07:00:24.572Z,998.22
2019-05-28T07:01:28.192Z,998.28
2019-05-28T07:02:24.543Z,998.24
2019-05-28T07:03:24.522Z,998.27
2019-05-28T07:04:32.607Z,998.24
2019-05-28T07:05:24.493Z,998.17
2019-05-28T07:06:24.494Z,998.20
2019-05-28T07:07:24.462Z,998.24
2019-05-28T07:08:24.459Z,998.21
2019-05-28T07:09:24.462Z,998.22
2019-05-28T07:10:24.411Z,998.20
2019-05-28T07:11:24.397Z,998.17
2019-05-28T07:12:24.394Z,998.27
2019-05-28T07:13:24.367Z,998.17
2019-05-28T07:14:24.354Z,998.20
2019-05-28T07:15:24.332Z,998.16
2019-05-28T07:16:24.319Z,998.18
2019-05-28T07:17:24.313Z,998.22
2019-05-28T07:18:24.286Z,998.21
2019-05-28T07:19:25.257Z,998.21
2019-05-28T07:20:24.252Z,998.21
2019-05-28T07:21:24.240Z,998.21
2019-05-28T07:22:24.237Z,998.23
2019-05-28T07:23:24.207Z,998.23
2019-05-28T07:24:24.189Z,998.20
2019-05-28T07:25:24.177Z,998.24
2019-05-28T07:26:24.210Z,998.21
2019-05-28T07:27:24.187Z,998.22
2019-05-28T07:28:24.127Z,998.21
2019-05-28T07:29:24.111Z,998.27
2019-05-28T07:30:24.100Z,998.29
2019-05-28T07:31:24.078Z,998.36
2019-05-28T07:32:24.069Z,998.33
2019-05-28T07:33:24.063Z,998.29
2019-05-28T07:34:30.772Z,998.32
2019-05-28T07:35:24.020Z,998.32
2019-05-28T07:36:24.002Z,998.25
2019-05-28T07:37:23.988Z,998.23
2019-05-28T07:38:23.994Z,998.23
2019-05-28T07:39:23.964Z,998.26
2019-05-28T07:40:31.605Z,998.25
2019-05-28T07:41:23.958Z,998.29
2019-05-28T07:42:32.728Z,998.31
2019-05-28T07:43:23.910Z,998.25
2019-05-28T07:44:23.885Z,998.30
2019-05-28T07:45:23.866Z,998.33
2019-05-28T07:46:23.853Z,998.27
2019-05-28T07:47:23.836Z,998.26
2019-05-28T07:48:23.851Z,998.28
2019-05-28T07:49:23.805Z,998.30
2019-05-28T07:50:23.794Z,998.28
2019-05-28T07:51:23.778Z,998.28
2019-05-28T07:52:23.758Z,998.25
2019-05-28T07:53:38.677Z,998.24
2019-05-28T07:54:23.729Z,998.25
2019-05-28T07:55:23.718Z,998.27
2019-05-28T07:56:23.699Z,998.23
2019-05-28T07:57:23.683Z,998.25
2019-05-28T07:58:23.685Z,998.22
2019-05-28T07:59:23.652Z,998.24
2019-05-28T08:00:23.639Z,998.23
2019-05-28T08:01:23.623Z,998.21
2019-05-28T08:02:23.610Z,998.22
2019-05-28T08:03:23.609Z,998.20
2019-05-28T08:04:23.578Z,998.18
2019-05-28T08:05:23.561Z,998.19
2019-05-28T08:06:23.547Z,998.16
2019-05-28T08:07:23.532Z,998.23
2019-05-28T08:08:23.529Z,998.22
2019-05-28T08:09:23.502Z,998.27
2019-05-28T08:10:23.486Z,998.24
2019-05-28T08:11:23.471Z,998.23
2019-05-28T08:12:23.456Z,998.23
2019-05-28T08:13:37.531Z,998.24
2019-05-28T08:14:23.424Z,998.19
2019-05-28T08:15:23.424Z,998.23
2019-05-28T08:16:24.240Z,998.31
2019-05-28T08:17:23.379Z,998.23
2019-05-28T08:18:23.447Z,998.27
2019-05-28T08:19:23.348Z,998.34
2019-05-28T08:20:23.332Z,998.36
2019-05-28T08:21:23.320Z,998.35
2019-05-28T08:22:23.304Z,998.36
2019-05-28T08:23:23.289Z,998.37
2019-05-28T08:24:23.287Z,998.38
2019-05-28T08:25:44.834Z,998.39
2019-05-28T08:26:23.243Z,998.37
2019-05-28T08:27:23.227Z,998.35
2019-05-28T08:28:23.217Z,998.27
2019-05-28T08:29:23.221Z,998.24
2019-05-28T08:30:23.183Z,998.31
2019-05-28T08:31:23.167Z,998.27
2019-05-28T08:32:23.155Z,998.28
2019-05-28T08:33:23.140Z,998.25
2019-05-28T08:34:23.140Z,998.24
2019-05-28T08:35:23.112Z,998.22
2019-05-28T08:36:23.097Z,998.24
2019-05-28T08:37:23.082Z,998.21
2019-05-28T08:38:23.066Z,998.18
2019-05-28T08:39:23.067Z,998.18
2019-05-28T08:40:23.040Z,998.19
2019-05-28T08:41:23.024Z,998.18
2019-05-28T08:42:23.008Z,998.22
2019-05-28T08:43:22.991Z,998.22
2019-05-28T08:44:22.999Z,998.22
2019-05-28T08:45:22.965Z,998.19
2019-05-28T08:46:22.951Z,998.20
2019-05-28T08:47:22.934Z,998.19
2019-05-28T08:48:22.918Z,998.23
2019-05-28T08:49:24.097Z,998.21
2019-05-28T08:50:33.924Z,998.21
2019-05-28T08:51:22.876Z,998.23
2019-05-28T08:52:22.863Z,998.18
2019-05-28T08:53:22.847Z,998.22
2019-05-28T08:54:22.848Z,998.21
2019-05-28T08:55:22.818Z,998.16
2019-05-28T08:56:22.805Z,998.21
2019-05-28T08:57:22.787Z,998.16
2019-05-28T08:58:22.774Z,998.19
2019-05-28T08:59:22.773Z,998.18
2019-05-28T09:00:22.745Z,998.19
2019-05-28T09:01:22.733Z,998.18
2019-05-28T09:02:27.682Z,998.19
2019-05-28T09:03:22.699Z,998.22
2019-05-28T09:04:22.704Z,998.23
2019-05-28T09:05:26.259Z,998.22
2019-05-28T09:06:26.909Z,998.22
2019-05-28T09:07:22.642Z,998.20
2019-05-28T09:08:37.608Z,998.19
2019-05-28T09:09:22.624Z,998.17
2019-05-28T09:10:22.595Z,998.16
2019-05-28T09:11:22.581Z,998.16
2019-05-28T09:12:22.567Z,998.16
2019-05-28T09:13:22.551Z,998.15
2019-05-28T09:14:22.555Z,998.13
2019-05-28T09:15:22.521Z,998.15
2019-05-28T09:16:22.506Z,998.19
2019-05-28T09:17:22.490Z,998.17
2019-05-28T09:18:22.477Z,998.16
2019-05-28T09:19:22.464Z,998.16
2019-05-28T09:20:22.464Z,998.14
2019-05-28T09:21:22.430Z,998.14
2019-05-28T09:22:25.916Z,998.12
2019-05-28T09:23:22.411Z,998.11
2019-05-28T09:24:22.385Z,998.14
2019-05-28T09:25:22.385Z,998.12
2019-05-28T09:26:22.357Z,998.09
2019-05-28T09:27:22.362Z,998.10
2019-05-28T09:28:29.832Z,998.07
2019-05-28T09:29:22.309Z,998.03
2019-05-28T09:30:22.308Z,998.01
2019-05-28T09:31:22.279Z,998.01
2019-05-28T09:32:22.263Z,998.05
2019-05-28T09:33:22.248Z,997.99
2019-05-28T09:34:22.234Z,997.97
2019-05-28T09:35:22.233Z,998.00
2019-05-28T09:36:22.202Z,998.00
2019-05-28T09:37:22.188Z,997.99
2019-05-28T09:38:22.171Z,997.99
2019-05-28T09:39:22.159Z,998.00
2019-05-28T09:40:22.164Z,998.05
2019-05-28T09:41:22.128Z,998.02
2019-05-28T09:42:22.117Z,998.05
2019-05-28T09:43:22.096Z,998.09
2019-05-28T09:44:22.080Z,998.06
2019-05-28T09:45:23.376Z,998.07
2019-05-28T09:46:22.067Z,998.07
2019-05-28T09:47:22.046Z,998.05
2019-05-28T09:48:22.051Z,998.06
2019-05-28T09:49:22.006Z,998.11
2019-05-28T09:50:30.593Z,998.10
2019-05-28T09:51:21.991Z,998.11
2019-05-28T09:52:21.963Z,998.04
2019-05-28T09:53:21.946Z,998.03
2019-05-28T09:54:21.934Z,998.08
2019-05-28T09:55:21.918Z,998.04
2019-05-28T09:56:21.920Z,998.08
2019-05-28T09:57:21.890Z,998.13
2019-05-28T09:58:21.876Z,998.13
2019-05-28T09:59:21.861Z,998.16
2019-05-28T10:00:21.851Z,998.17
2019-05-28T10:01:21.847Z,998.12
2019-05-28T10:02:21.818Z,998.16
2019-05-28T10:03:21.805Z,998.17
2019-05-28T10:04:21.792Z,998.12
2019-05-28T10:05:21.772Z,998.14
2019-05-28T10:06:36.163Z,998.10
2019-05-28T10:07:21.821Z,998.09
2019-05-28T10:08:21.734Z,998.15
2019-05-28T10:09:21.721Z,998.15
2019-05-28T10:10:21.705Z,998.15
2019-05-28T10:11:21.726Z,998.16
2019-05-28T10:12:21.677Z,998.11
2019-05-28T10:13:37.444Z,998.14
2019-05-28T10:14:21.648Z,998.12
2019-05-28T10:15:21.636Z,998.14
2019-05-28T10:16:21.618Z,998.22
2019-05-28T10:17:21.619Z,998.22
2019-05-28T10:18:21.595Z,998.24
2019-05-28T10:19:21.577Z,998.26
2019-05-28T10:20:21.564Z,998.28
2019-05-28T10:21:21.571Z,998.23
2019-05-28T10:22:21.558Z,998.28
2019-05-28T10:23:21.524Z,998.25
2019-05-28T10:24:21.508Z,998.18
2019-05-28T10:25:21.496Z,998.15
2019-05-28T10:26:21.489Z,998.20
2019-05-28T10:27:21.489Z,998.20
2019-05-28T10:28:21.458Z,998.13
2019-05-28T10:29:21.440Z,998.14
2019-05-28T10:30:21.428Z,998.16
2019-05-28T10:31:21.413Z,998.14
2019-05-28T10:32:21.413Z,998.16
2019-05-28T10:33:21.384Z,998.13
2019-05-28T10:34:21.371Z,998.14
2019-05-28T10:35:21.360Z,998.15
2019-05-28T10:36:35.460Z,998.14
2019-05-28T10:37:21.344Z,998.18
2019-05-28T10:38:21.316Z,998.21
2019-05-28T10:39:21.302Z,998.20
2019-05-28T10:40:21.295Z,998.20
2019-05-28T10:41:21.288Z,998.27
2019-05-28T10:42:21.279Z,998.21
2019-05-28T10:43:21.253Z,998.19
2019-05-28T10:44:21.232Z,998.23
2019-05-28T10:45:21.219Z,998.24
2019-05-28T10:46:21.208Z,998.25
2019-05-28T10:47:21.193Z,998.33
2019-05-28T10:48:21.192Z,998.25
2019-05-28T10:49:21.163Z,998.24
2019-05-28T10:50:21.152Z,998.28
2019-05-28T10:51:21.138Z,998.28
2019-05-28T10:52:21.133Z,998.31
2019-05-28T10:53:21.127Z,998.32
2019-05-28T10:54:21.098Z,998.42
2019-05-28T10:55:21.084Z,998.53
2019-05-28T10:56:21.072Z,998.53
2019-05-28T10:57:21.077Z,998.57
2019-05-28T10:58:21.065Z,998.57
2019-05-28T10:59:21.030Z,998.52
2019-05-28T11:00:21.025Z,998.61
2019-05-28T11:01:21.006Z,998.67
2019-05-28T11:02:20.996Z,998.77
2019-05-28T11:03:20.984Z,998.76
2019-05-28T11:04:20.962Z,998.81
2019-05-28T11:05:20.943Z,998.72
2019-05-28T11:06:21.000Z,998.76
2019-05-28T11:07:20.935Z,998.74
2019-05-28T11:08:20.897Z,998.77
2019-05-28T11:24:08.409Z,998.96
2019-05-28T11:25:08.376Z,998.96
2019-05-28T11:26:08.359Z,999.01
2019-05-28T11:27:08.335Z,999.06
2019-05-28T11:28:08.333Z,999.09
2019-05-28T11:29:08.301Z,999.07
2019-05-28T11:30:08.283Z,999.09
2019-05-28T11:31:08.261Z,999.17
2019-05-28T11:32:08.253Z,999.14
2019-05-28T11:33:08.242Z,999.14
2019-05-28T11:34:08.211Z,999.19
2019-05-28T11:35:08.197Z,999.21
2019-05-28T11:36:08.175Z,999.31
2019-05-28T11:37:09.928Z,999.23
2019-05-28T11:38:08.238Z,999.40
2019-05-28T11:39:08.122Z,999.39
2019-05-28T11:40:08.108Z,999.35
2019-05-28T11:41:08.088Z,999.31
2019-05-28T11:42:08.073Z,999.22
2019-05-28T11:43:08.054Z,999.20
2019-05-28T11:44:08.082Z,999.29
2019-05-28T11:45:08.410Z,999.29
2019-05-28T11:46:08.009Z,999.31
2019-05-28T11:47:07.992Z,999.41
2019-05-28T11:48:07.978Z,999.37
2019-05-28T11:49:07.977Z,999.40
2019-05-28T11:50:07.947Z,999.41
2019-05-28T11:51:07.943Z,999.40
2019-05-28T11:52:07.915Z,999.39
2019-05-28T11:53:07.910Z,999.41
2019-05-28T11:54:07.898Z,999.39
2019-05-28T11:55:07.867Z,999.45
2019-05-28T11:56:07.866Z,999.50
2019-05-28T11:57:07.838Z,999.43
2019-05-28T11:58:07.821Z,999.50
2019-05-28T11:59:07.824Z,999.48
2019-05-28T12:00:07.793Z,999.49
2019-05-28T12:01:07.773Z,999.50
2019-05-28T12:02:07.762Z,999.54
2019-05-28T12:03:07.741Z,999.52
2019-05-28T12:04:07.778Z,999.65
2019-05-28T12:05:07.721Z,999.64
2019-05-28T12:06:07.698Z,999.72
2019-05-28T12:07:07.680Z,999.70
2019-05-28T12:08:07.659Z,999.66
2019-05-28T12:09:07.643Z,999.68
2019-05-28T12:10:07.641Z,999.69
2019-05-28T12:11:07.611Z,999.63
2019-05-28T12:12:07.595Z,999.61
2019-05-28T12:13:10.779Z,999.58
2019-05-28T12:14:07.559Z,999.66
2019-05-28T12:15:07.557Z,999.64
2019-05-28T12:16:07.527Z,999.67
2019-05-28T12:17:07.509Z,999.68
2019-05-28T12:18:07.503Z,999.68
2019-05-28T12:19:07.479Z,999.70
2019-05-28T12:20:07.576Z,999.70
2019-05-28T12:21:07.443Z,999.69
2019-05-28T12:22:07.430Z,999.75
2019-05-28T12:23:11.512Z,999.77
2019-05-28T12:24:07.393Z,999.78
2019-05-28T12:25:07.380Z,999.71
2019-05-28T12:26:07.376Z,999.75
2019-05-28T12:27:07.343Z,999.75
2019-05-28T12:28:07.330Z,999.79
2019-05-28T12:29:07.310Z,999.73
2019-05-28T12:30:07.295Z,999.78
2019-05-28T12:31:07.296Z,999.79
2019-05-28T12:32:08.780Z,999.75
2019-05-28T12:33:07.244Z,999.91
2019-05-28T12:34:07.234Z,999.92
2019-05-28T12:35:23.841Z,999.90
2019-05-28T12:36:07.266Z,999.89
2019-05-28T12:37:07.197Z,999.91
2019-05-28T12:38:07.169Z,999.93
2019-05-28T12:39:07.148Z,999.92
2019-05-28T12:40:07.135Z,999.98
2019-05-28T12:41:07.139Z,999.98
2019-05-28T12:42:07.609Z,1000.03
2019-05-28T12:43:07.089Z,999.99
2019-05-28T12:44:07.076Z,1000.17
2019-05-28T12:45:09.845Z,1000.24
2019-05-28T12:46:07.068Z,1000.17
2019-05-28T12:47:07.025Z,1000.15
2019-05-28T12:48:12.598Z,1000.22
2019-05-28T12:49:06.995Z,1000.17
2019-05-28T12:50:19.001Z,1000.16
2019-05-28T12:51:06.965Z,1000.22
2019-05-28T12:52:06.964Z,1000.21
2019-05-28T12:53:06.937Z,1000.25
2019-05-28T12:54:06.931Z,1000.23
2019-05-28T12:55:06.907Z,1000.20
2019-05-28T12:56:06.895Z,1000.08
2019-05-28T12:57:06.894Z,1000.08
2019-05-28T12:58:06.877Z,1000.19
2019-05-28T12:59:06.851Z,1000.35
2019-05-28T13:00:06.840Z,1000.37
2019-05-28T13:01:06.825Z,1000.35
2019-05-28T13:02:06.832Z,1000.33
2019-05-28T13:03:06.803Z,1000.38
2019-05-28T13:04:06.792Z,1000.30
2019-05-28T13:05:06.772Z,1000.28
2019-05-28T13:06:06.762Z,1000.28
2019-05-28T13:07:06.763Z,1000.29
2019-05-28T13:08:09.885Z,1000.30
2019-05-28T13:09:06.823Z,1000.37
2019-05-28T13:10:06.735Z,1000.34
2019-05-28T13:11:06.696Z,1000.35
2019-05-28T13:12:06.686Z,1000.36
2019-05-28T13:13:06.687Z,1000.41
2019-05-28T13:14:06.725Z,1000.44
2019-05-28T13:15:06.648Z,1000.48
2019-05-28T13:16:06.704Z,1000.19
2019-05-28T13:17:06.628Z,1000.14
2019-05-28T13:18:06.629Z,1000.24
2019-05-28T13:19:06.604Z,1000.46
2019-05-28T13:20:06.589Z,1000.44
2019-05-28T13:21:06.577Z,1000.41
2019-05-28T13:22:06.568Z,1000.43
2019-05-28T13:23:06.573Z,1000.39
2019-05-28T13:24:06.545Z,1000.17
2019-05-28T13:25:06.532Z,1000.17
2019-05-28T13:26:06.522Z,1000.21
2019-05-28T13:27:17.653Z,1000.21
2019-05-28T13:28:06.514Z,1000.16
2019-05-28T13:29:06.487Z,1000.16
2019-05-28T13:30:06.657Z,1000.14
2019-05-28T13:31:06.464Z,1000.10
2019-05-28T13:32:08.317Z,1000.19
2019-05-28T13:33:06.459Z,1000.23
2019-05-28T13:34:06.427Z,1000.25
2019-05-28T13:35:06.414Z,1000.26
2019-05-28T13:36:06.400Z,1000.28
2019-05-28T13:37:06.388Z,1000.32
2019-05-28T13:38:23.508Z,1000.45
2019-05-28T13:39:06.361Z,1000.51
2019-05-28T13:40:06.366Z,1000.48
2019-05-28T13:41:06.335Z,1000.45
2019-05-28T13:42:06.324Z,1000.49
2019-05-28T13:43:06.335Z,1000.50
2019-05-28T13:44:08.135Z,1000.34
2019-05-28T13:45:06.286Z,1000.35
2019-05-28T13:46:06.272Z,1000.36
2019-05-28T13:47:06.267Z,1000.34
2019-05-28T13:48:06.264Z,1000.30
2019-05-28T13:49:06.229Z,1000.32
2019-05-28T13:50:06.228Z,1000.29
2019-05-28T13:51:06.204Z,1000.34
2019-05-28T13:52:12.142Z,1000.57
2019-05-28T13:53:06.183Z,1000.39
2019-05-28T13:54:06.182Z,1000.36
2019-05-28T13:55:06.153Z,1000.72
2019-05-28T13:56:06.141Z,1000.68
2019-05-28T13:57:06.130Z,1000.72
2019-05-28T13:58:06.116Z,1000.78
2019-05-28T13:59:06.119Z,1000.39
2019-05-28T14:00:06.090Z,1000.28
2019-05-28T14:01:06.081Z,1000.36
2019-05-28T14:02:06.069Z,1000.31
2019-05-28T14:03:06.169Z,1000.30
2019-05-28T14:04:06.054Z,1000.32
2019-05-28T14:05:06.028Z,1000.36
2019-05-28T14:06:06.017Z,1000.33
2019-05-28T14:07:06.004Z,1000.66
2019-05-28T14:08:05.992Z,1000.36
2019-05-28T14:09:05.992Z,1000.68
2019-05-28T14:10:05.968Z,1000.60
2019-05-28T14:11:05.952Z,1000.36
2019-05-28T14:12:05.937Z,1000.67
2019-05-28T14:13:05.959Z,1000.36
2019-05-28T14:14:05.930Z,1000.41
2019-05-28T14:15:05.914Z,1000.61
2019-05-28T14:16:05.898Z,1000.45
2019-05-28T14:17:05.885Z,1000.41
2019-05-28T14:18:06.108Z,1000.43
2019-05-28T14:19:05.867Z,1000.72
2019-05-28T14:20:05.858Z,1000.46
2019-05-28T14:21:05.841Z,1000.47
2019-05-28T14:22:05.821Z,1000.76
2019-05-28T14:23:05.874Z,1000.73
2019-05-28T14:24:05.819Z,1000.75
2019-05-28T14:25:05.785Z,1000.79
2019-05-28T14:26:05.798Z,1000.77
2019-05-28T14:27:05.762Z,1000.68
2019-05-28T14:28:05.785Z,1000.60
2019-05-28T14:29:05.741Z,1000.61
2019-05-28T14:30:05.749Z,1000.62
2019-05-28T14:31:05.720Z,1000.61
2019-05-28T14:32:05.715Z,1000.62
2019-05-28T14:33:05.701Z,1000.63
2019-05-28T14:34:05.691Z,1000.60
2019-05-28T14:35:05.697Z,1000.69
2019-05-28T14:36:05.666Z,1000.70
2019-05-28T14:37:05.655Z,1000.72
2019-05-28T14:38:05.654Z,1000.72
2019-05-28T14:39:05.633Z,1000.75
2019-05-28T14:40:05.623Z,1000.67
2019-05-28T14:41:06.091Z,1000.72
2019-05-28T14:42:05.605Z,1000.71
2019-05-28T14:43:05.588Z,1000.76
2019-05-28T14:44:05.574Z,1000.96
2019-05-28T14:45:05.563Z,1000.92
2019-05-28T14:46:05.567Z,1000.94
2019-05-28T14:47:05.543Z,1000.97
2019-05-28T14:48:05.533Z,1001.02
2019-05-28T14:49:07.855Z,1001.01
2019-05-28T14:50:05.509Z,1000.98
2019-05-28T14:51:05.512Z,1000.71
2019-05-28T14:52:05.488Z,1000.72
2019-05-28T14:53:05.485Z,1000.80
2019-05-28T14:54:05.489Z,1000.87
2019-05-28T14:55:05.456Z,1000.81
2019-05-28T14:56:05.467Z,1000.90
2019-05-28T14:57:05.438Z,1000.88
2019-05-28T14:58:06.164Z,1000.97
2019-05-28T14:59:05.420Z,1001.08
2019-05-28T15:00:05.411Z,1001.20
2019-05-28T15:01:05.402Z,1001.30
2019-05-28T15:02:05.411Z,1000.97
2019-05-28T15:03:05.383Z,1001.41
2019-05-28T15:04:05.375Z,1001.45
2019-05-28T15:05:05.366Z,1001.40
2019-05-28T15:06:05.358Z,1001.40
2019-05-28T15:07:05.383Z,1001.48
2019-05-28T15:08:05.339Z,1000.88
2019-05-28T15:09:19.203Z,1000.84
2019-05-28T15:10:05.383Z,1000.78
2019-05-28T15:11:05.315Z,1000.82
2019-05-28T15:12:05.315Z,1000.89
2019-05-28T15:13:05.314Z,1001.39
2019-05-28T15:14:05.292Z,1001.39
2019-05-28T15:15:05.280Z,1001.43
2019-05-28T15:16:05.273Z,1001.16
2019-05-28T15:17:05.265Z,1000.94
2019-05-28T15:18:05.269Z,1000.96
2019-05-28T15:19:05.307Z,1000.97
2019-05-28T15:20:05.254Z,1000.89
2019-05-28T15:21:05.226Z,1000.90
2019-05-28T15:22:05.259Z,1000.97
2019-05-28T15:23:05.231Z,1000.92
2019-05-28T15:24:05.200Z,1000.90
2019-05-28T15:25:05.190Z,1000.88
2019-05-28T15:26:05.179Z,1000.90
2019-05-28T15:27:05.167Z,1000.92
2019-05-28T15:28:05.172Z,1000.94
2019-05-28T15:29:05.146Z,1000.94
2019-05-28T15:30:05.135Z,1000.96
2019-05-28T15:31:05.123Z,1001.00
2019-05-28T15:32:05.117Z,1001.04
2019-05-28T15:33:05.119Z,1001.09
2019-05-28T15:34:05.088Z,1001.13
2019-05-28T15:35:05.087Z,1001.88
2019-05-28T15:36:05.065Z,1001.65
2019-05-28T15:37:05.049Z,1001.08
2019-05-28T15:38:05.045Z,1001.05
2019-05-28T15:39:05.042Z,1001.11
2019-05-28T15:40:05.017Z,1001.03
2019-05-28T15:41:04.998Z,1001.08
2019-05-28T15:42:04.986Z,1001.03
2019-05-28T15:43:06.756Z,1001.05
2019-05-28T15:44:04.973Z,1001.08
2019-05-28T15:45:04.947Z,1001.05
2019-05-28T15:46:04.934Z,1001.05
2019-05-28T15:47:04.920Z,1001.08
2019-05-28T15:48:04.909Z,1001.06
2019-05-28T15:49:04.918Z,1001.10
2019-05-28T15:50:04.878Z,1001.06
2019-05-28T15:51:04.875Z,1001.08
2019-05-28T15:52:07.675Z,1001.09
2019-05-28T15:53:04.836Z,1001.13
2019-05-28T15:54:04.836Z,1001.14
2019-05-28T15:55:04.808Z,1001.13
2019-05-28T15:56:04.791Z,1001.18
2019-05-28T15:57:04.778Z,1001.19
2019-05-28T15:58:04.771Z,1001.20
2019-05-28T15:59:04.774Z,1001.18
2019-05-28T16:00:04.737Z,1001.22
2019-05-28T16:01:04.719Z,1001.21
2019-05-28T16:02:04.703Z,1001.19
2019-05-28T16:03:04.690Z,1001.29
2019-05-28T16:04:04.672Z,1001.20
2019-05-28T16:05:04.674Z,1001.25
2019-05-28T16:06:04.646Z,1001.29
2019-05-28T16:07:04.629Z,1001.28
2019-05-28T16:08:04.614Z,1001.29
2019-05-28T16:09:04.598Z,1001.27
2019-05-28T16:10:04.604Z,1001.36
2019-05-28T16:11:04.566Z,1001.32
2019-05-28T16:12:04.552Z,1001.37
2019-05-28T16:13:04.538Z,1001.38
2019-05-28T16:14:04.524Z,1001.39
2019-05-28T16:15:04.524Z,1001.48
2019-05-28T16:16:07.576Z,1001.48
2019-05-28T16:17:04.492Z,1001.49
2019-05-28T16:18:04.476Z,1001.35
2019-05-28T16:19:04.446Z,1001.51
2019-05-28T16:20:04.452Z,1001.67
2019-05-28T16:21:04.419Z,1001.40
2019-05-28T16:22:04.431Z,1001.29
2019-05-28T16:23:04.387Z,1001.31
2019-05-28T16:24:04.376Z,1001.32
2019-05-28T16:25:04.376Z,1001.33
2019-05-28T16:26:04.358Z,1001.37
2019-05-28T16:27:04.330Z,1001.45
2019-05-28T16:28:04.323Z,1001.52
2019-05-28T16:29:04.299Z,1001.50
2019-05-28T16:30:04.287Z,1001.53
2019-05-28T16:31:12.310Z,1001.50
2019-05-28T16:32:04.257Z,1001.53
2019-05-28T16:33:04.247Z,1001.57
2019-05-28T16:34:04.224Z,1001.60
2019-05-28T16:35:04.228Z,1001.62
2019-05-28T16:36:04.216Z,1001.65
2019-05-28T16:37:04.179Z,1001.69
2019-05-28T16:38:04.167Z,1001.72
2019-05-28T16:39:04.150Z,1001.74
2019-05-28T16:40:14.973Z,1001.76
2019-05-28T16:41:04.142Z,1001.80
2019-05-28T16:42:04.104Z,1001.99
2019-05-28T16:43:04.085Z,1002.09
2019-05-28T16:44:04.070Z,1002.18
2019-05-28T16:45:04.054Z,1002.20
2019-05-28T16:46:04.040Z,1002.17
2019-05-28T16:47:17.232Z,1002.31
2019-05-28T16:48:04.017Z,1002.28
2019-05-28T16:49:04.028Z,1002.37
2019-05-28T16:50:03.989Z,1002.42
2019-05-28T16:51:03.979Z,1002.29
2019-05-28T16:52:04.130Z,1002.16
2019-05-28T16:53:03.961Z,1002.20
2019-05-28T16:54:18.095Z,1002.03
2019-05-28T16:55:03.920Z,1002.08
2019-05-28T16:56:03.909Z,1002.06
2019-05-28T16:57:03.911Z,1002.08
2019-05-28T16:58:03.906Z,1002.34
2019-05-28T16:59:03.875Z,1002.12
2019-05-28T17:00:03.865Z,1002.09
2019-05-28T17:01:21.127Z,1002.08
2019-05-28T17:02:03.848Z,1002.11
2019-05-28T17:03:03.823Z,1002.39
2019-05-28T17:04:03.831Z,1002.42
2019-05-28T17:05:03.801Z,1002.46
2019-05-28T17:06:03.786Z,1002.46
2019-05-28T17:07:03.789Z,1002.47
2019-05-28T17:08:03.772Z,1002.24
2019-05-28T17:09:03.753Z,1002.23
2019-05-28T17:10:03.743Z,1002.29
2019-05-28T17:11:03.768Z,1002.25
2019-05-28T17:12:03.797Z,1002.21
2019-05-28T17:13:03.781Z,1002.20
2019-05-28T17:14:03.749Z,1002.19
2019-05-28T17:15:03.694Z,1002.24
2019-05-28T17:16:03.669Z,1002.21
2019-05-28T17:17:03.683Z,1002.35
2019-05-28T17:18:03.648Z,1002.34
2019-05-28T17:19:03.646Z,1002.31
2019-05-28T17:20:03.643Z,1002.28
2019-05-28T17:21:03.616Z,1002.23
2019-05-28T17:22:03.606Z,1002.27
2019-05-28T17:23:03.586Z,1002.25
2019-05-28T17:24:03.566Z,1002.29
2019-05-28T17:25:03.552Z,1002.30
2019-05-28T17:26:03.540Z,1002.23
2019-05-28T17:27:03.539Z,1002.31
2019-05-28T17:28:03.528Z,1002.27
2019-05-28T17:29:03.499Z,1002.31
2019-05-28T17:30:17.329Z,1002.33
2019-05-28T17:31:03.470Z,1002.31
2019-05-28T17:32:03.473Z,1002.35
2019-05-28T17:33:03.441Z,1002.38
2019-05-28T17:34:03.439Z,1002.37
2019-05-28T17:35:03.415Z,1002.46
2019-05-28T17:36:03.397Z,1002.49
2019-05-28T17:37:03.395Z,1002.45
2019-05-28T17:38:03.382Z,1002.46
2019-05-28T17:39:03.352Z,1002.51
2019-05-28T17:40:03.336Z,1002.45
2019-05-28T17:41:03.324Z,1002.50
2019-05-28T17:42:03.322Z,1002.53
2019-05-28T17:43:03.292Z,1002.54
2019-05-28T17:44:03.275Z,1002.53
2019-05-28T17:45:03.262Z,1002.57
2019-05-28T17:46:03.245Z,1002.54
2019-05-28T17:47:03.227Z,1002.58
2019-05-28T17:48:03.223Z,1002.55
2019-05-28T17:49:03.198Z,1002.55
2019-05-28T17:50:03.241Z,1002.58
2019-05-28T17:51:03.170Z,1002.59
2019-05-28T17:52:03.157Z,1002.55
2019-05-28T17:53:03.151Z,1002.64
2019-05-28T17:54:03.132Z,1002.65
2019-05-28T17:55:03.195Z,1002.65
2019-05-28T17:56:03.132Z,1002.66
2019-05-28T17:57:03.071Z,1002.75
2019-05-28T17:58:03.072Z,1002.68
2019-05-28T17:59:03.043Z,1002.72
2019-05-28T18:00:03.085Z,1002.74
2019-05-28T18:01:03.007Z,1002.80
2019-05-28T18:02:02.992Z,1002.79
2019-05-28T18:03:02.972Z,1002.83
2019-05-28T18:04:02.970Z,1002.84
2019-05-28T18:05:02.940Z,1002.86
2019-05-28T18:06:02.924Z,1002.90
2019-05-28T18:07:02.907Z,1002.89
2019-05-28T18:08:02.890Z,1002.93
2019-05-28T18:09:02.896Z,1002.93
2019-05-28T18:10:02.858Z,1002.90
2019-05-28T18:11:04.771Z,1002.95
2019-05-28T18:12:02.822Z,1002.97
2019-05-28T18:13:02.807Z,1002.98